Time;durP1;ratioP1;P1;durP2;ratioP2;P2;SDS_P1;SDS_P2;PMS_P1;PMS_P2;Temp;Humidity;BMP_temperature;BMP_pressure;BME280_temperature;BME280_humidity;BME280_pressure;Samples;Min_cycle;Max_cycle;Signal;HPM_P1;HPM_P2
2023/03/03 00:02:20;;;;;;;7.13;4.90;;;;;;;;;;5059080;28;20792;-74
2023/03/03 00:04:46;;;;;;;7.82;4.22;;;;;;;;;;5056165;28;20048;-77
2023/03/03 00:07:20;;;;;;;6.57;4.20;;;;;;;;;;5057465;28;20105;-75
2023/03/03 00:09:46;;;;;;;8.27;4.30;;;;;;;;;;5054638;28;20110;-75
2023/03/03 00:12:33;;;;;;;5.88;3.90;;;;;;;;;;5057708;28;20049;-75
2023/03/03 00:14:59;;;;;;;10.23;4.00;;;;;;;;;;5059118;28;20091;-75
2023/03/03 00:17:28;;;;;;;7.50;3.83;;;;;;;;;;5056395;28;20411;-74
2023/03/03 00:19:55;;;;;;;7.15;3.53;;;;;;;;;;5059615;28;20057;-75
2023/03/03 00:22:35;;;;;;;5.18;3.65;;;;;;;;;;5058381;28;20288;-76
2023/03/03 00:25:40;;;;;;;5.18;3.83;;;;;;;;;;5058690;28;20074;-76
2023/03/03 00:28:19;;;;;;;6.18;3.47;;;;;;;;;;5060766;28;20044;-75
2023/03/03 00:30:45;;;;;;;5.38;3.40;;;;;;;;;;5067104;28;20060;-75
2023/03/03 00:33:38;;;;;;;6.97;3.38;;;;;;;;;;5062200;28;20549;-75
2023/03/03 00:36:35;;;;;;;4.50;3.38;;;;;;;;;;5056672;28;20059;-76
2023/03/03 00:39:35;;;;;;;7.25;3.38;;;;;;;;;;5059018;28;20055;-77
2023/03/03 00:42:09;;;;;;;3.28;2.90;;;;;;;;;;5054648;28;20515;-75
2023/03/03 00:44:44;;;;;;;5.30;3.33;;;;;;;;;;5061933;28;20495;-73
2023/03/03 00:47:13;;;;;;;5.43;3.40;;;;;;;;;;5063703;28;20076;-75
2023/03/03 00:49:40;;;;;;;5.78;4.10;;;;;;;;;;5061844;28;20106;-74
2023/03/03 00:52:17;;;;;;;8.57;4.93;;;;;;;;;;5058489;28;20045;-73
2023/03/03 00:54:44;;;;;;;6.35;4.70;;;;;;;;;;5063735;28;20075;-74
2023/03/03 00:57:11;;;;;;;12.50;5.15;;;;;;;;;;5062781;28;20048;-72
2023/03/03 00:59:38;;;;;;;9.38;5.40;;;;;;;;;;5062973;28;20049;-78
2023/03/03 01:02:05;;;;;;;8.50;5.32;;;;;;;;;;5056264;28;20041;-74
2023/03/03 01:04:34;;;;;;;7.80;5.18;;;;;;;;;;5055992;28;20049;-74
2023/03/03 01:07:00;;;;;;;7.90;4.78;;;;;;;;;;5061220;28;20044;-74
2023/03/03 01:09:27;;;;;;;8.02;4.47;;;;;;;;;;5064084;28;20051;-73
2023/03/03 01:11:54;;;;;;;5.47;4.07;;;;;;;;;;5059731;28;20059;-79
2023/03/03 01:14:19;;;;;;;6.13;4.20;;;;;;;;;;5050087;28;20052;-74
2023/03/03 01:16:46;;;;;;;11.27;4.10;;;;;;;;;;5062098;28;20150;-74
2023/03/03 01:19:11;;;;;;;7.43;3.80;;;;;;;;;;5061437;28;20057;-73
2023/03/03 01:21:38;;;;;;;5.07;3.45;;;;;;;;;;5056157;28;20053;-74
2023/03/03 01:24:04;;;;;;;4.50;2.80;;;;;;;;;;5064034;28;21012;-73
2023/03/03 01:26:31;;;;;;;4.72;2.97;;;;;;;;;;5043566;28;20549;-74
2023/03/03 01:28:57;;;;;;;3.67;2.92;;;;;;;;;;5056688;28;20052;-74
2023/03/03 01:31:23;;;;;;;5.53;2.95;;;;;;;;;;5060716;28;20176;-73
2023/03/03 01:33:49;;;;;;;4.32;2.55;;;;;;;;;;5057310;28;20153;-72
2023/03/03 01:36:23;;;;;;;3.20;2.40;;;;;;;;;;5059316;28;20102;-75
2023/03/03 01:38:49;;;;;;;5.90;3.20;;;;;;;;;;5059734;28;20067;-74
2023/03/03 01:41:15;;;;;;;5.97;3.05;;;;;;;;;;5061200;28;20483;-73
2023/03/03 01:43:47;;;;;;;7.25;2.92;;;;;;;;;;5060958;28;20055;-73
2023/03/03 01:51:32;;;;;;;3.67;2.70;;;;;;;;;;5231711;23;20319;-64
2023/03/03 01:54:02;;;;;;;5.90;3.28;;;;;;;;;;4946078;28;20051;-62
2023/03/03 01:56:29;;;;;;;4.28;3.15;;;;;;;;;;4951795;28;20058;-65
2023/03/03 01:59:05;;;;;;;4.22;3.03;;;;;;;;;;4933735;29;20057;-67
2023/03/03 02:01:32;;;;;;;3.72;2.70;;;;;;;;;;4952379;28;20133;-63
2023/03/03 02:03:58;;;;;;;5.40;3.03;;;;;;;;;;4945943;28;20057;-62
2023/03/03 02:06:31;;;;;;;4.75;2.92;;;;;;;;;;4939227;28;20047;-63
2023/03/03 02:09:00;;;;;;;7.75;3.22;;;;;;;;;;4946010;28;20161;-62
2023/03/03 02:11:30;;;;;;;7.53;3.10;;;;;;;;;;4943230;28;20106;-64
2023/03/03 02:13:57;;;;;;;5.15;3.40;;;;;;;;;;4948373;28;20051;-61
2023/03/03 02:16:24;;;;;;;7.90;3.17;;;;;;;;;;4948525;28;20075;-62
2023/03/03 02:18:50;;;;;;;4.95;3.10;;;;;;;;;;4948896;28;20047;-61
2023/03/03 02:21:26;;;;;;;3.28;2.78;;;;;;;;;;4946901;28;20051;-63
2023/03/03 02:24:16;;;;;;;5.28;3.15;;;;;;;;;;4948400;28;20150;-61
2023/03/03 02:26:44;;;;;;;4.30;2.88;;;;;;;;;;4947439;28;20110;-62
2023/03/03 02:29:10;;;;;;;5.13;3.00;;;;;;;;;;4944422;28;20052;-63
2023/03/03 02:31:37;;;;;;;4.28;3.38;;;;;;;;;;4947509;28;20097;-64
2023/03/03 02:34:04;;;;;;;4.90;3.03;;;;;;;;;;4947140;28;20415;-63
2023/03/03 02:36:33;;;;;;;8.25;3.78;;;;;;;;;;4945554;29;20086;-62
2023/03/03 02:39:19;;;;;;;7.72;3.70;;;;;;;;;;4944907;28;20062;-65
2023/03/03 02:42:04;;;;;;;6.22;3.78;;;;;;;;;;4929442;28;20503;-61
2023/03/03 02:44:31;;;;;;;;;;;;;;;;;;4949178;28;20418;-62
2023/03/03 02:46:58;;;;;;;5.60;3.55;;;;;;;;;;4946199;28;19926;-63
2023/03/03 02:49:30;;;;;;;6.13;4.10;;;;;;;;;;4946163;28;20063;-62
2023/03/03 02:51:57;;;;;;;6.22;4.07;;;;;;;;;;4945222;28;20066;-62
2023/03/03 02:54:27;;;;;;;7.75;4.30;;;;;;;;;;4942420;28;20054;-63
2023/03/03 02:56:53;;;;;;;5.75;4.13;;;;;;;;;;4942680;28;20047;-62
2023/03/03 02:59:22;;;;;;;7.20;4.60;;;;;;;;;;4940833;28;20431;-63
2023/03/03 03:01:49;;;;;;;7.78;4.40;;;;;;;;;;4945211;28;20053;-63
2023/03/03 03:04:21;;;;;;;5.90;4.20;;;;;;;;;;4936471;28;20046;-63
2023/03/03 03:06:49;;;;;;;7.82;5.13;;;;;;;;;;4945702;28;20066;-62
2023/03/03 03:09:15;;;;;;;14.68;6.47;;;;;;;;;;4942900;29;20112;-62
2023/03/03 03:11:42;;;;;;;17.40;7.70;;;;;;;;;;4947045;28;20071;-62
2023/03/03 03:14:12;;;;;;;12.68;6.90;;;;;;;;;;4948986;29;20503;-67
2023/03/03 03:16:38;;;;;;;16.60;8.77;;;;;;;;;;4940954;29;20602;-63
2023/03/03 03:19:05;;;;;;;15.05;8.90;;;;;;;;;;4942020;28;20542;-62
2023/03/03 03:21:31;;;;;;;13.95;8.82;;;;;;;;;;4945935;28;20055;-61
2023/03/03 03:23:59;;;;;;;16.42;9.13;;;;;;;;;;4947449;29;20186;-62
2023/03/03 03:26:33;;;;;;;14.25;8.88;;;;;;;;;;4939802;28;20138;-62
2023/03/03 03:28:59;;;;;;;15.95;9.57;;;;;;;;;;4943656;28;20051;-62
2023/03/03 03:31:25;;;;;;;16.73;9.02;;;;;;;;;;4946463;28;20781;-63
2023/03/03 03:33:51;;;;;;;15.00;9.45;;;;;;;;;;4944483;28;20046;-63
2023/03/03 03:36:17;;;;;;;15.38;9.15;;;;;;;;;;4944455;28;20051;-63
2023/03/03 03:38:44;;;;;;;17.10;9.50;;;;;;;;;;4944244;28;20125;-61
2023/03/03 03:41:11;;;;;;;14.07;8.80;;;;;;;;;;4943596;28;20055;-64
2023/03/03 03:43:37;;;;;;;12.38;8.70;;;;;;;;;;4944379;28;20051;-61
2023/03/03 03:46:03;;;;;;;14.38;9.05;;;;;;;;;;4926395;28;20066;-62
2023/03/03 03:48:29;;;;;;;13.10;8.90;;;;;;;;;;4939540;28;20059;-63
2023/03/03 03:50:55;;;;;;;15.05;8.55;;;;;;;;;;4943276;28;20055;-63
2023/03/03 03:53:21;;;;;;;13.52;8.57;;;;;;;;;;4941825;28;20086;-63
2023/03/03 03:55:47;;;;;;;14.35;9.10;;;;;;;;;;4940248;29;20055;-62
2023/03/03 03:58:15;;;;;;;13.63;9.00;;;;;;;;;;4943069;28;20065;-62
2023/03/03 04:00:42;;;;;;;14.85;8.75;;;;;;;;;;4944354;28;20094;-63
2023/03/03 04:03:10;;;;;;;13.90;8.50;;;;;;;;;;4941945;28;20110;-61
2023/03/03 04:05:37;;;;;;;14.43;8.75;;;;;;;;;;4943775;28;20055;-62
2023/03/03 04:08:07;;;;;;;12.63;8.43;;;;;;;;;;4945753;28;20423;-62
2023/03/03 04:10:32;;;;;;;15.80;9.13;;;;;;;;;;4942448;28;20603;-63
2023/03/03 04:13:00;;;;;;;16.23;9.10;;;;;;;;;;4928194;29;20051;-62
2023/03/03 04:15:25;;;;;;;11.25;8.02;;;;;;;;;;4943817;28;20055;-62
2023/03/03 04:17:51;;;;;;;15.07;8.25;;;;;;;;;;4945315;28;20055;-60
2023/03/03 04:20:19;;;;;;;12.18;7.95;;;;;;;;;;4937844;28;20058;-62
2023/03/03 04:22:45;;;;;;;13.27;7.32;;;;;;;;;;4943805;29;20051;-62
2023/03/03 04:25:16;;;;;;;13.75;8.30;;;;;;;;;;4945629;28;20063;-62
2023/03/03 04:27:43;;;;;;;11.77;7.65;;;;;;;;;;4945538;28;20143;-62
2023/03/03 04:30:10;;;;;;;12.48;7.40;;;;;;;;;;4944496;28;20427;-61
2023/03/03 04:32:36;;;;;;;14.18;7.88;;;;;;;;;;4945817;29;20059;-63
2023/03/03 04:35:03;;;;;;;10.73;7.68;;;;;;;;;;4942186;28;20055;-64
2023/03/03 04:37:29;;;;;;;15.35;7.55;;;;;;;;;;4943315;28;20691;-63
2023/03/03 04:39:54;;;;;;;17.60;7.35;;;;;;;;;;4942795;28;20055;-62
2023/03/03 04:42:20;;;;;;;12.15;7.80;;;;;;;;;;4945370;28;20058;-64
2023/03/03 04:44:46;;;;;;;12.35;8.05;;;;;;;;;;4943720;28;20047;-62
2023/03/03 04:47:12;;;;;;;15.05;7.20;;;;;;;;;;4942331;28;20066;-63
2023/03/03 04:49:40;;;;;;;12.85;7.30;;;;;;;;;;4942980;29;20052;-62
2023/03/03 04:52:06;;;;;;;13.18;6.82;;;;;;;;;;4943508;28;20514;-61
2023/03/03 04:54:33;;;;;;;13.90;7.13;;;;;;;;;;4943143;28;20047;-62
2023/03/03 04:56:59;;;;;;;13.90;7.30;;;;;;;;;;4941601;28;20059;-62
2023/03/03 04:59:24;;;;;;;19.33;8.07;;;;;;;;;;4942312;28;20106;-61
2023/03/03 05:01:53;;;;;;;13.45;7.40;;;;;;;;;;4922209;29;20043;-61
2023/03/03 05:04:19;;;;;;;10.05;6.68;;;;;;;;;;4947323;28;20114;-61
2023/03/03 05:06:45;;;;;;;15.43;7.43;;;;;;;;;;4944577;28;20059;-61
2023/03/03 05:09:11;;;;;;;9.60;6.68;;;;;;;;;;4949715;28;20396;-61
2023/03/03 05:11:37;;;;;;;11.82;6.57;;;;;;;;;;4945462;28;20051;-62
2023/03/03 05:14:04;;;;;;;8.30;5.95;;;;;;;;;;4942470;28;20071;-64
2023/03/03 05:16:30;;;;;;;12.43;6.38;;;;;;;;;;4947169;28;20067;-63
2023/03/03 05:18:55;;;;;;;14.50;6.20;;;;;;;;;;4951267;29;20144;-61
2023/03/03 05:21:24;;;;;;;12.88;6.22;;;;;;;;;;4948324;29;20530;-63
2023/03/03 05:23:51;;;;;;;11.38;6.53;;;;;;;;;;4951536;28;20047;-62
2023/03/03 05:26:57;;;;;;;11.63;6.40;;;;;;;;;;4946837;29;20752;-62
2023/03/03 05:30:38;;;;;;;9.90;6.03;;;;;;;;;;4941441;28;20070;-62
2023/03/03 05:34:19;;;;;;;9.77;5.25;;;;;;;;;;4943598;28;20051;-63
2023/03/03 05:37:19;;;;;;;10.32;6.00;;;;;;;;;;4944626;28;20054;-69
2023/03/03 05:39:45;;;;;;;11.10;5.97;;;;;;;;;;4946944;28;20043;-64
2023/03/03 05:42:14;;;;;;;13.00;5.80;;;;;;;;;;4948456;28;20384;-65
2023/03/03 05:44:42;;;;;;;10.77;6.07;;;;;;;;;;4949752;28;20082;-65
2023/03/03 05:47:08;;;;;;;13.73;5.82;;;;;;;;;;4940540;28;20110;-69
2023/03/03 05:49:34;;;;;;;12.55;6.22;;;;;;;;;;4942889;28;20587;-65
2023/03/03 05:52:00;;;;;;;10.68;5.88;;;;;;;;;;4949281;28;20055;-65
2023/03/03 05:54:27;;;;;;;12.70;6.50;;;;;;;;;;4943632;28;20522;-65
2023/03/03 05:56:53;;;;;;;11.13;6.40;;;;;;;;;;4945863;28;20133;-67
2023/03/03 05:59:19;;;;;;;9.88;5.95;;;;;;;;;;4944914;28;20931;-67
2023/03/03 06:01:45;;;;;;;10.68;6.03;;;;;;;;;;4947430;29;20415;-65
2023/03/03 06:04:11;;;;;;;10.48;6.30;;;;;;;;;;4927888;29;20066;-64
2023/03/03 06:06:37;;;;;;;10.07;7.00;;;;;;;;;;4939141;28;20051;-64
2023/03/03 06:09:03;;;;;;;15.80;7.57;;;;;;;;;;4944710;28;20051;-64
2023/03/03 06:11:29;;;;;;;16.58;7.63;;;;;;;;;;4932565;28;20616;-64
2023/03/03 06:13:56;;;;;;;15.05;7.72;;;;;;;;;;4948180;28;20686;-67
2023/03/03 06:16:23;;;;;;;12.18;7.38;;;;;;;;;;4945410;28;20118;-64
2023/03/03 06:18:49;;;;;;;19.45;7.70;;;;;;;;;;4945688;28;20054;-65
2023/03/03 06:21:15;;;;;;;18.75;7.20;;;;;;;;;;4944365;28;20047;-63
2023/03/03 06:23:41;;;;;;;9.90;6.72;;;;;;;;;;4945998;29;20418;-62
2023/03/03 06:26:08;;;;;;;15.68;6.47;;;;;;;;;;4945359;28;20055;-66
2023/03/03 06:28:35;;;;;;;14.70;6.82;;;;;;;;;;4952042;28;20147;-65
2023/03/03 06:31:01;;;;;;;12.60;6.40;;;;;;;;;;4945301;28;20063;-65
2023/03/03 06:33:27;;;;;;;14.98;5.57;;;;;;;;;;4928490;29;20051;-64
2023/03/03 06:35:53;;;;;;;14.82;5.70;;;;;;;;;;4942893;28;20055;-62
2023/03/03 06:38:19;;;;;;;9.23;6.18;;;;;;;;;;4950013;28;20093;-66
2023/03/03 06:40:47;;;;;;;11.65;6.38;;;;;;;;;;4941424;29;20062;-66
2023/03/03 06:43:22;;;;;;;10.63;5.78;;;;;;;;;;4944234;28;20047;-64
2023/03/03 06:45:51;;;;;;;19.58;6.10;;;;;;;;;;4948050;29;20126;-64
2023/03/03 06:48:17;;;;;;;10.57;5.65;;;;;;;;;;4945000;28;20054;-65
2023/03/03 06:50:44;;;;;;;13.18;5.70;;;;;;;;;;4946276;28;20051;-63
2023/03/03 06:53:16;;;;;;;14.02;6.90;;;;;;;;;;4948104;29;20059;-65
2023/03/03 06:55:43;;;;;;;17.63;6.63;;;;;;;;;;4947157;28;20114;-68
2023/03/03 06:58:14;;;;;;;12.27;6.90;;;;;;;;;;4938884;28;20106;-67
2023/03/03 07:00:45;;;;;;;13.88;6.97;;;;;;;;;;4945865;28;20467;-65
2023/03/03 07:03:15;;;;;;;16.70;7.03;;;;;;;;;;4945833;28;20161;-67
2023/03/03 07:05:44;;;;;;;13.30;6.45;;;;;;;;;;4943005;28;20055;-68
2023/03/03 07:08:20;;;;;;;10.77;6.50;;;;;;;;;;4942652;28;20305;-68
2023/03/03 07:10:46;;;;;;;16.80;6.20;;;;;;;;;;4946093;28;20066;-66
2023/03/03 07:13:25;;;;;;;11.65;5.82;;;;;;;;;;4950124;28;20057;-67
2023/03/03 07:16:00;;;;;;;11.00;5.40;;;;;;;;;;4923810;29;20071;-64
2023/03/03 07:18:52;;;;;;;14.57;5.57;;;;;;;;;;4940748;28;20055;-66
2023/03/03 07:21:20;;;;;;;15.57;6.10;;;;;;;;;;4944400;28;20106;-67
2023/03/03 07:23:53;;;;;;;17.48;6.45;;;;;;;;;;4940962;28;20055;-66
2023/03/03 07:26:29;;;;;;;16.75;6.35;;;;;;;;;;4928448;29;20462;-64
2023/03/03 07:29:27;;;;;;;15.23;5.68;;;;;;;;;;4945980;28;20046;-65
2023/03/03 07:31:57;;;;;;;16.15;5.53;;;;;;;;;;4939819;28;20051;-66
2023/03/03 07:34:29;;;;;;;12.23;5.40;;;;;;;;;;4947748;28;20090;-63
2023/03/03 07:37:10;;;;;;;24.65;5.45;;;;;;;;;;4944476;28;20134;-66
2023/03/03 07:39:38;;;;;;;11.00;5.43;;;;;;;;;;4941282;28;20070;-67
2023/03/03 07:42:47;;;;;;;12.00;5.65;;;;;;;;;;4944468;28;20113;-66
2023/03/03 07:45:56;;;;;;;16.42;5.35;;;;;;;;;;4938995;28;20071;-66
2023/03/03 07:48:58;;;;;;;18.85;5.68;;;;;;;;;;4943719;28;20055;-66
2023/03/03 07:51:42;;;;;;;15.70;5.75;;;;;;;;;;4943518;28;20130;-64
2023/03/03 07:54:13;;;;;;;12.03;6.73;;;;;;;;;;4944495;28;20082;-65
2023/03/03 07:56:40;;;;;;;20.00;5.60;;;;;;;;;;4939986;28;20305;-63
2023/03/03 07:59:21;;;;;;;13.43;5.90;;;;;;;;;;4945798;28;20054;-64
2023/03/03 08:01:52;;;;;;;15.40;5.70;;;;;;;;;;4936919;28;20113;-64
2023/03/03 08:04:37;;;;;;;12.43;5.35;;;;;;;;;;4942580;28;20054;-63
2023/03/03 08:07:15;;;;;;;17.20;5.65;;;;;;;;;;4942086;28;20122;-63
2023/03/03 08:10:00;;;;;;;15.88;6.07;;;;;;;;;;4925850;28;20525;-63
2023/03/03 08:12:41;;;;;;;15.48;5.90;;;;;;;;;;4938644;28;20071;-65
2023/03/03 08:15:16;;;;;;;9.23;5.30;;;;;;;;;;4941674;29;20051;-65
2023/03/03 08:17:44;;;;;;;16.95;6.07;;;;;;;;;;4940718;28;20065;-66
2023/03/03 08:21:11;;;;;;;9.38;5.07;;;;;;;;;;4943747;28;20584;-65
2023/03/03 08:24:51;;;;;;;11.80;5.63;;;;;;;;;;4944762;28;20063;-64
2023/03/03 08:28:31;;;;;;;15.57;6.03;;;;;;;;;;4941119;28;20495;-65
2023/03/03 08:31:32;;;;;;;20.02;7.55;;;;;;;;;;4936324;28;20047;-65
2023/03/03 08:33:58;;;;;;;16.65;8.10;;;;;;;;;;4926381;28;20059;-64
2023/03/03 08:36:24;;;;;;;21.80;9.60;;;;;;;;;;4925694;28;20055;-62
2023/03/03 08:38:51;;;;;;;21.25;10.07;;;;;;;;;;4938397;28;20059;-66
2023/03/03 08:41:17;;;;;;;24.80;10.20;;;;;;;;;;4938926;28;20066;-63
2023/03/03 08:43:44;;;;;;;22.10;8.73;;;;;;;;;;4945536;28;20086;-64
2023/03/03 08:46:15;;;;;;;24.15;7.65;;;;;;;;;;4943210;28;20129;-63
2023/03/03 08:48:42;;;;;;;18.17;7.70;;;;;;;;;;4942794;29;20067;-63
2023/03/03 08:51:09;;;;;;;18.88;5.85;;;;;;;;;;4944137;28;20412;-64
2023/03/03 08:53:37;;;;;;;21.92;6.38;;;;;;;;;;4934896;28;20158;-64
2023/03/03 08:56:05;;;;;;;14.95;6.05;;;;;;;;;;4943184;28;20574;-65
2023/03/03 08:58:32;;;;;;;16.33;5.63;;;;;;;;;;4941623;28;20058;-64
2023/03/03 09:00:58;;;;;;;12.95;5.30;;;;;;;;;;4933820;28;20051;-64
2023/03/03 09:03:24;;;;;;;9.35;5.13;;;;;;;;;;4946055;28;20043;-66
2023/03/03 09:06:06;;;;;;;7.72;4.63;;;;;;;;;;4947222;28;20043;-63
2023/03/03 09:09:12;;;;;;;18.45;5.05;;;;;;;;;;4943414;28;20059;-64
2023/03/03 09:13:00;;;;;;;10.40;4.70;;;;;;;;;;4945148;28;20039;-64
2023/03/03 09:16:00;;;;;;;;;;;;;;;;;;4942469;28;20142;-65
2023/03/03 09:18:44;;;;;;;9.43;4.35;;;;;;;;;;4946314;28;19922;-64
2023/03/03 09:21:21;;;;;;;17.33;5.10;;;;;;;;;;4944117;28;20054;-63
2023/03/03 09:23:56;;;;;;;9.95;3.80;;;;;;;;;;4948475;28;20044;-66
2023/03/03 09:26:45;;;;;;;13.43;4.15;;;;;;;;;;4932893;28;20463;-63
2023/03/03 09:29:14;;;;;;;10.50;4.07;;;;;;;;;;4930970;29;20055;-63
2023/03/03 09:31:54;;;;;;;8.70;3.83;;;;;;;;;;4943462;28;20075;-64
2023/03/03 09:34:35;;;;;;;9.95;4.28;;;;;;;;;;4944549;28;20074;-63
2023/03/03 09:37:17;;;;;;;8.05;3.78;;;;;;;;;;4945814;28;20055;-63
2023/03/03 09:39:45;;;;;;;12.13;4.03;;;;;;;;;;4949385;28;20783;-66
2023/03/03 09:42:16;;;;;;;12.05;4.10;;;;;;;;;;4940220;28;20398;-64
2023/03/03 09:45:58;;;;;;;10.95;4.15;;;;;;;;;;4944767;28;20043;-65
2023/03/03 09:49:38;;;;;;;9.85;3.95;;;;;;;;;;4943479;28;20129;-64
2023/03/03 09:53:07;;;;;;;7.18;3.25;;;;;;;;;;4943728;28;20102;-63
2023/03/03 09:57:04;;;;;;;10.05;3.70;;;;;;;;;;4945753;28;20059;-62
2023/03/03 10:00:45;;;;;;;8.60;3.70;;;;;;;;;;4947095;28;20257;-63
2023/03/03 10:04:11;;;;;;;6.28;3.47;;;;;;;;;;4946398;28;20152;-64
2023/03/03 10:07:48;;;;;;;8.52;3.60;;;;;;;;;;4946858;28;20065;-62
2023/03/03 10:11:38;;;;;;;9.45;3.92;;;;;;;;;;4946371;28;20043;-63
2023/03/03 10:15:03;;;;;;;7.68;3.38;;;;;;;;;;4948045;28;20513;-62
2023/03/03 10:18:23;;;;;;;8.20;3.20;;;;;;;;;;4946446;28;20087;-63
2023/03/03 10:22:08;;;;;;;7.93;3.00;;;;;;;;;;4940604;28;20365;-65
2023/03/03 10:26:15;;;;;;;8.68;2.88;;;;;;;;;;4947050;28;20043;-62
2023/03/03 10:29:17;;;;;;;5.88;3.25;;;;;;;;;;4905624;29;20040;-73
2023/03/03 10:32:48;;;;;;;5.90;2.50;;;;;;;;;;4905358;29;20134;-72
2023/03/03 10:36:14;;;;;;;9.65;3.03;;;;;;;;;;4901930;29;20060;-70
2023/03/03 10:39:34;;;;;;;5.63;2.38;;;;;;;;;;4901390;29;20115;-71
2023/03/03 10:43:13;;;;;;;6.80;2.50;;;;;;;;;;4903654;29;20138;-70
2023/03/03 10:46:53;;;;;;;6.47;2.60;;;;;;;;;;4901305;29;20075;-70
2023/03/03 10:50:11;;;;;;;4.53;2.38;;;;;;;;;;4897761;29;20134;-70
2023/03/03 10:53:35;;;;;;;8.02;2.83;;;;;;;;;;4901863;29;20060;-70
2023/03/03 10:56:38;;;;;;;3.97;2.50;;;;;;;;;;4902178;29;20060;-69
2023/03/03 11:00:21;;;;;;;7.00;2.50;;;;;;;;;;4903526;29;20119;-70
2023/03/03 11:03:56;;;;;;;6.85;2.45;;;;;;;;;;4926871;28;20051;-69
2023/03/03 11:07:02;;;;;;;5.35;2.67;;;;;;;;;;4939207;28;20050;-70
2023/03/03 11:10:43;;;;;;;9.27;2.38;;;;;;;;;;4944621;28;20149;-68
2023/03/03 11:14:06;;;;;;;4.28;2.17;;;;;;;;;;4939331;28;20380;-69
2023/03/03 11:17:41;;;;;;;6.30;2.00;;;;;;;;;;4942896;28;20058;-72
2023/03/03 11:21:28;;;;;;;5.88;2.38;;;;;;;;;;4940885;29;20369;-71
2023/03/03 11:25:04;;;;;;;6.03;2.20;;;;;;;;;;4939110;29;20074;-68
2023/03/03 11:28:07;;;;;;;4.85;1.90;;;;;;;;;;4906825;29;20072;-72
2023/03/03 11:31:28;;;;;;;4.15;2.40;;;;;;;;;;4904998;29;20060;-73
2023/03/03 11:34:35;;;;;;;4.18;2.30;;;;;;;;;;4904931;29;20060;-71
2023/03/03 11:37:41;;;;;;;4.90;2.10;;;;;;;;;;4906962;29;20067;-75
2023/03/03 11:41:36;;;;;;;6.72;2.60;;;;;;;;;;4905588;29;20055;-72
2023/03/03 11:45:16;;;;;;;8.02;2.35;;;;;;;;;;4905381;29;20056;-70
2023/03/03 11:49:11;;;;;;;4.15;2.28;;;;;;;;;;4903274;29;20634;-68
2023/03/03 11:52:52;;;;;;;3.65;2.05;;;;;;;;;;4903488;29;20103;-70
2023/03/03 11:56:32;;;;;;;4.38;2.10;;;;;;;;;;4908079;29;20468;-71
2023/03/03 12:00:37;;;;;;;6.30;2.13;;;;;;;;;;4935271;28;20055;-70
2023/03/03 12:04:17;;;;;;;3.75;2.03;;;;;;;;;;4939582;29;20051;-71
2023/03/03 12:07:50;;;;;;;4.43;2.08;;;;;;;;;;4938101;29;20531;-73
2023/03/03 12:11:39;;;;;;;4.03;2.63;;;;;;;;;;4945330;28;20047;-71
2023/03/03 12:15:09;;;;;;;4.13;2.10;;;;;;;;;;4938124;28;20047;-72
2023/03/03 12:18:43;;;;;;;9.07;2.35;;;;;;;;;;4946223;28;20503;-72
2023/03/03 12:22:28;;;;;;;4.15;2.15;;;;;;;;;;4943894;28;20050;-70
2023/03/03 12:25:23;;;;;;;2.78;2.00;;;;;;;;;;4931175;29;20074;-71
2023/03/03 12:28:31;;;;;;;5.28;2.05;;;;;;;;;;4946031;29;20043;-71
2023/03/03 12:31:18;;;;;;;8.35;2.30;;;;;;;;;;4948026;28;20388;-70
2023/03/03 12:33:44;;;;;;;5.82;2.42;;;;;;;;;;4927631;28;20152;-68
2023/03/03 12:36:36;;;;;;;5.78;2.50;;;;;;;;;;4945916;28;20099;-69
2023/03/03 12:39:28;;;;;;;3.88;2.15;;;;;;;;;;4941532;28;20117;-71
2023/03/03 12:41:57;;;;;;;6.03;2.60;;;;;;;;;;4947024;28;20061;-68
2023/03/03 12:44:29;;;;;;;8.75;2.83;;;;;;;;;;4927346;28;20122;-68
2023/03/03 12:47:02;;;;;;;7.30;2.92;;;;;;;;;;4947008;28;20097;-68
2023/03/03 12:50:09;;;;;;;9.02;3.10;;;;;;;;;;4950311;28;20542;-68
2023/03/03 12:52:54;;;;;;;5.18;2.85;;;;;;;;;;4909079;29;20504;-70
2023/03/03 12:55:47;;;;;;;8.57;2.78;;;;;;;;;;4917597;29;20052;-69
2023/03/03 12:58:37;;;;;;;4.50;2.33;;;;;;;;;;4904858;29;20068;-70
2023/03/03 13:01:27;;;;;;;6.13;2.70;;;;;;;;;;4911604;29;20167;-69
2023/03/03 13:04:19;;;;;;;5.57;2.40;;;;;;;;;;4889026;29;20059;-69
2023/03/03 13:06:59;;;;;;;9.85;2.55;;;;;;;;;;4917403;29;20146;-70
2023/03/03 13:09:37;;;;;;;9.70;2.60;;;;;;;;;;4905704;29;20080;-70
2023/03/03 13:12:28;;;;;;;8.45;2.88;;;;;;;;;;4915901;29;20690;-71
2023/03/03 13:15:17;;;;;;;6.95;2.15;;;;;;;;;;4905631;29;20398;-70
2023/03/03 13:18:21;;;;;;;4.75;2.15;;;;;;;;;;4909060;29;20044;-72
2023/03/03 13:21:01;;;;;;;5.68;2.33;;;;;;;;;;4909833;29;20271;-72
2023/03/03 13:24:04;;;;;;;6.10;2.55;;;;;;;;;;4932182;28;20051;-70
2023/03/03 13:26:41;;;;;;;6.80;3.15;;;;;;;;;;4933235;29;20063;-70
2023/03/03 13:29:27;;;;;;;4.28;2.22;;;;;;;;;;4948253;28;20463;-68
2023/03/03 13:31:55;;;;;;;;;;;;;;;;;;4932303;29;20126;-69
2023/03/03 13:35:05;;;;;;;4.28;2.38;;;;;;;;;;4950503;29;19933;-69
2023/03/03 13:37:45;;;;;;;7.88;2.47;;;;;;;;;;4951479;29;20045;-72
2023/03/03 13:40:26;;;;;;;4.43;2.00;;;;;;;;;;4953350;29;20363;-70
2023/03/03 13:43:03;;;;;;;3.88;1.92;;;;;;;;;;4953552;28;20047;-68
2023/03/03 13:45:56;;;;;;;6.60;2.17;;;;;;;;;;4951391;28;20178;-69
2023/03/03 13:48:31;;;;;;;4.75;1.73;;;;;;;;;;4953976;29;20265;-68
2023/03/03 13:51:22;;;;;;;4.13;1.70;;;;;;;;;;4952848;28;20059;-71
2023/03/03 13:54:02;;;;;;;6.75;2.30;;;;;;;;;;4949002;29;20043;-70
2023/03/03 13:56:52;;;;;;;4.55;2.00;;;;;;;;;;4950048;28;20669;-70
2023/03/03 13:59:38;;;;;;;6.88;1.83;;;;;;;;;;4946032;28;20067;-70
2023/03/03 14:02:04;;;;;;;7.05;2.13;;;;;;;;;;4944411;28;20043;-70
2023/03/03 14:04:30;;;;;;;6.13;2.75;;;;;;;;;;4945394;29;20054;-71
2023/03/03 14:07:19;;;;;;;4.90;1.90;;;;;;;;;;4946980;28;20055;-68
2023/03/03 14:09:57;;;;;;;2.50;1.80;;;;;;;;;;4947975;29;20047;-69
2023/03/03 14:12:38;;;;;;;4.05;1.77;;;;;;;;;;4929509;29;20071;-70
2023/03/03 14:15:17;;;;;;;3.58;2.17;;;;;;;;;;4943358;29;20514;-69
2023/03/03 14:18:05;;;;;;;6.50;2.50;;;;;;;;;;4946844;28;20096;-68
2023/03/03 14:20:44;;;;;;;3.88;2.08;;;;;;;;;;4942507;28;20066;-69
2023/03/03 14:23:17;;;;;;;5.05;1.67;;;;;;;;;;4948016;28;20047;-68
2023/03/03 14:26:06;;;;;;;3.45;1.60;;;;;;;;;;4949611;29;20058;-67
2023/03/03 14:28:44;;;;;;;6.90;2.10;;;;;;;;;;4944673;28;20055;-67
2023/03/03 14:31:42;;;;;;;6.50;1.70;;;;;;;;;;4943205;28;20070;-66
2023/03/03 14:34:28;;;;;;;6.32;1.70;;;;;;;;;;4944300;28;20053;-68
2023/03/03 14:37:23;;;;;;;5.60;2.15;;;;;;;;;;4945435;28;20043;-68
2023/03/03 14:40:08;;;;;;;3.50;1.60;;;;;;;;;;4947495;28;20154;-69
2023/03/03 14:42:39;;;;;;;2.40;1.50;;;;;;;;;;4946769;28;20133;-69
2023/03/03 14:45:36;;;;;;;4.95;2.42;;;;;;;;;;4942770;28;20055;-67
2023/03/03 14:48:16;;;;;;;3.55;1.90;;;;;;;;;;4945294;28;20043;-66
2023/03/03 14:50:55;;;;;;;3.88;2.00;;;;;;;;;;4942782;28;20492;-69
2023/03/03 14:53:32;;;;;;;4.57;2.03;;;;;;;;;;4945326;28;20090;-69
2023/03/03 14:56:21;;;;;;;6.65;2.03;;;;;;;;;;4944879;28;20055;-71
2023/03/03 14:58:48;;;;;;;3.92;1.77;;;;;;;;;;4943608;28;20134;-67
2023/03/03 15:01:36;;;;;;;3.95;1.90;;;;;;;;;;4944924;28;20066;-74
2023/03/03 15:04:23;;;;;;;3.80;2.10;;;;;;;;;;4947787;28;20052;-68
2023/03/03 15:06:52;;;;;;;4.78;2.05;;;;;;;;;;4941652;28;20047;-68
2023/03/03 15:09:32;;;;;;;3.80;1.50;;;;;;;;;;4937584;29;20577;-69
2023/03/03 15:12:01;;;;;;;5.70;1.92;;;;;;;;;;4944809;28;20360;-70
2023/03/03 15:14:45;;;;;;;6.35;2.10;;;;;;;;;;4948521;28;20082;-69
2023/03/03 15:17:30;;;;;;;3.90;1.83;;;;;;;;;;4945148;28;20125;-67
2023/03/03 15:20:31;;;;;;;4.20;1.92;;;;;;;;;;4934602;28;20086;-68
2023/03/03 15:23:16;;;;;;;5.15;1.67;;;;;;;;;;4941160;28;20537;-68
2023/03/03 15:25:57;;;;;;;6.30;2.00;;;;;;;;;;4948692;29;20071;-69
2023/03/03 15:28:42;;;;;;;4.32;2.00;;;;;;;;;;4938172;28;20106;-67
2023/03/03 15:31:35;;;;;;;5.45;2.17;;;;;;;;;;4947128;29;20051;-66
2023/03/03 15:34:25;;;;;;;3.17;2.10;;;;;;;;;;4943386;28;20175;-69
2023/03/03 15:37:07;;;;;;;8.27;2.35;;;;;;;;;;4946963;28;20517;-68
2023/03/03 15:39:51;;;;;;;3.55;1.90;;;;;;;;;;4950448;28;20066;-72
2023/03/03 15:42:26;;;;;;;7.15;1.83;;;;;;;;;;4947044;28;20055;-70
2023/03/03 15:45:28;;;;;;;4.03;2.10;;;;;;;;;;4946949;28;20043;-69
2023/03/03 15:48:15;;;;;;;8.43;2.53;;;;;;;;;;4901541;29;20354;-67
2023/03/03 15:51:00;;;;;;;6.43;2.20;;;;;;;;;;4945325;28;20047;-65
2023/03/03 15:53:26;;;;;;;5.18;2.10;;;;;;;;;;4936447;28;20043;-66
2023/03/03 15:56:11;;;;;;;4.57;1.77;;;;;;;;;;4945091;29;20583;-68
2023/03/03 15:59:03;;;;;;;5.43;1.83;;;;;;;;;;4945663;29;20051;-67
2023/03/03 16:01:39;;;;;;;4.82;2.05;;;;;;;;;;4943369;28;20058;-63
2023/03/03 16:04:15;;;;;;;4.40;1.88;;;;;;;;;;4928835;29;20106;-67
2023/03/03 16:07:05;;;;;;;3.90;2.40;;;;;;;;;;4942468;28;20327;-65
2023/03/03 16:10:11;;;;;;;5.30;2.30;;;;;;;;;;4942520;28;20492;-67
2023/03/03 16:12:50;;;;;;;;;;;;;;;;;;4944166;28;20078;-64
2023/03/03 16:15:54;;;;;;;7.57;1.90;;;;;;;;;;4942007;28;19934;-63
2023/03/03 16:18:27;;;;;;;5.13;1.70;;;;;;;;;;4907969;28;20051;-67
2023/03/03 16:21:49;;;;;;;4.80;1.90;;;;;;;;;;4944020;28;20478;-66